createdAt,value
2023-03-17T00:00:34.896Z,2.94
2023-03-17T00:01:34.913Z,2.38
2023-03-17T00:02:35.003Z,2.46
2023-03-17T00:03:35.106Z,2.87
2023-03-17T00:04:35.153Z,2.11
2023-03-17T00:05:35.270Z,2.96
2023-03-17T00:06:35.373Z,3.03
2023-03-17T00:07:35.426Z,2.19
2023-03-17T00:08:35.495Z,1.53
2023-03-17T00:09:35.572Z,1.28
2023-03-17T00:10:35.661Z,1.28
2023-03-17T00:11:35.793Z,1.48
2023-03-17T00:12:35.868Z,2.09
2023-03-17T00:13:35.952Z,2.38
2023-03-17T00:14:36.027Z,2.68
2023-03-17T00:15:36.132Z,2.96
2023-03-17T00:16:36.210Z,1.90
2023-03-17T00:17:36.298Z,2.11
2023-03-17T00:18:36.411Z,1.27
2023-03-17T00:19:36.512Z,1.06
2023-03-17T00:20:36.618Z,0.98
2023-03-17T00:21:36.696Z,1.16
2023-03-17T00:22:36.782Z,1.08
2023-03-17T00:23:36.876Z,1.05
2023-03-17T00:24:36.937Z,1.74
2023-03-17T00:25:37.069Z,1.02
2023-03-17T00:26:37.059Z,1.24
2023-03-17T00:27:37.127Z,1.11
2023-03-17T00:28:37.209Z,1.03
2023-03-17T00:29:37.262Z,1.15
2023-03-17T00:30:37.369Z,1.07
2023-03-17T00:31:37.508Z,1.06
2023-03-17T00:32:37.566Z,1.54
2023-03-17T00:33:37.633Z,1.24
2023-03-17T00:34:37.687Z,1.25
2023-03-17T00:35:37.845Z,0.99
2023-03-17T00:36:37.871Z,1.21
2023-03-17T00:37:37.955Z,1.43
2023-03-17T00:38:38.050Z,1.20
2023-03-17T00:39:38.204Z,0.97
2023-03-17T00:40:38.204Z,1.21
2023-03-17T00:49:38.717Z,1.58
2023-03-17T00:50:38.749Z,1.74
2023-03-17T00:51:38.756Z,1.35
2023-03-17T00:52:38.783Z,1.94
2023-03-17T00:53:38.820Z,2.42
2023-03-17T00:54:38.835Z,1.32
2023-03-17T00:55:38.881Z,1.39
2023-03-17T00:56:38.920Z,1.54
2023-03-17T00:57:38.965Z,1.20
2023-03-17T00:58:38.983Z,1.17
2023-03-17T00:59:39.069Z,0.85
2023-03-17T01:00:39.140Z,1.08
2023-03-17T01:01:39.262Z,1.20
2023-03-17T01:02:39.234Z,1.11
2023-03-17T01:03:39.267Z,1.31
2023-03-17T01:04:39.286Z,1.45
2023-03-17T01:05:39.324Z,1.68
2023-03-17T01:06:39.328Z,0.99
2023-03-17T01:07:39.347Z,1.22
2023-03-17T01:08:39.380Z,1.10
2023-03-17T01:09:39.396Z,1.28
2023-03-17T01:10:39.424Z,1.19
2023-03-17T01:11:39.469Z,1.14
2023-03-17T01:12:39.529Z,1.14
2023-03-17T01:13:39.578Z,1.83
2023-03-17T01:14:39.633Z,1.80
2023-03-17T01:15:39.727Z,1.08
2023-03-17T01:16:39.846Z,1.03
2023-03-17T01:17:39.851Z,1.33
2023-03-17T01:18:39.994Z,1.10
2023-03-17T01:19:39.986Z,1.12
2023-03-17T01:20:40.061Z,0.75
2023-03-17T01:21:40.101Z,0.87
2023-03-17T01:22:40.132Z,1.21
2023-03-17T01:23:40.184Z,1.02
2023-03-17T01:24:40.230Z,0.85
2023-03-17T01:25:40.280Z,0.76
2023-03-17T01:26:40.373Z,0.86
2023-03-17T01:27:40.383Z,0.64
2023-03-17T01:28:40.439Z,1.89
2023-03-17T01:29:40.488Z,1.67
2023-03-17T01:30:40.549Z,1.20
2023-03-17T01:31:40.638Z,0.81
2023-03-17T01:32:40.731Z,0.75
2023-03-17T01:33:40.788Z,0.64
2023-03-17T01:34:40.886Z,0.65
2023-03-17T01:35:40.982Z,0.68
2023-03-17T01:36:41.077Z,0.68
2023-03-17T01:37:41.162Z,0.78
2023-03-17T01:38:41.255Z,0.75
2023-03-17T01:39:41.335Z,1.10
2023-03-17T01:40:41.406Z,0.91
2023-03-17T01:41:41.527Z,2.00
2023-03-17T01:42:41.661Z,1.89
2023-03-17T01:43:41.730Z,2.23
2023-03-17T01:44:41.815Z,1.36
2023-03-17T01:45:42.031Z,1.11
2023-03-17T01:46:42.270Z,1.14
2023-03-17T01:47:42.497Z,1.21
2023-03-17T01:48:42.731Z,1.22
2023-03-17T01:49:42.980Z,1.88
2023-03-17T01:50:43.223Z,1.74
2023-03-17T01:51:43.473Z,1.24
2023-03-17T01:52:43.719Z,1.77
2023-03-17T01:53:43.926Z,1.05
2023-03-17T01:54:44.171Z,1.27
2023-03-17T01:55:44.408Z,1.35
2023-03-17T01:56:44.647Z,1.67
2023-03-17T01:57:44.860Z,1.31
2023-03-17T01:58:45.089Z,1.62
2023-03-17T01:59:45.331Z,1.49
2023-03-17T02:00:45.623Z,1.62
2023-03-17T02:01:45.806Z,1.50
2023-03-17T02:02:46.028Z,1.49
2023-03-17T02:03:46.287Z,1.44
2023-03-17T02:04:46.485Z,2.15
2023-03-17T02:05:46.702Z,2.43
2023-03-17T02:06:57.529Z,2.55
2023-03-17T02:07:47.984Z,1.59
2023-03-17T02:08:47.034Z,1.42
2023-03-17T02:09:47.089Z,0.98
2023-03-17T02:10:47.133Z,1.13
2023-03-17T02:11:47.190Z,0.84
2023-03-17T02:12:47.256Z,0.99
2023-03-17T02:13:47.290Z,1.17
2023-03-17T02:14:47.334Z,0.72
2023-03-17T02:20:48.115Z,1.01
2023-03-17T02:21:48.346Z,3.58
2023-03-17T02:22:48.586Z,3.06
2023-03-17T02:23:48.840Z,2.74
2023-03-17T02:24:49.078Z,2.04
2023-03-17T02:25:49.325Z,2.04
2023-03-17T02:26:49.570Z,1.45
2023-03-17T02:27:49.787Z,1.33
2023-03-17T02:28:50.002Z,1.20
2023-03-17T02:29:50.207Z,1.46
2023-03-17T02:30:50.428Z,1.16
2023-03-17T02:31:50.597Z,1.37
2023-03-17T02:32:50.938Z,1.07
2023-03-17T02:33:51.064Z,1.33
2023-03-17T02:34:51.268Z,0.89
2023-03-17T02:35:51.520Z,1.01
2023-03-17T02:36:51.799Z,1.26
2023-03-17T02:37:51.969Z,1.57
2023-03-17T02:38:52.119Z,1.72
2023-03-17T02:39:52.380Z,1.78
2023-03-17T02:40:52.610Z,1.30
2023-03-17T02:41:52.841Z,1.69
2023-03-17T02:42:53.093Z,1.37
2023-03-17T02:43:53.345Z,1.72
2023-03-17T02:44:53.566Z,1.42
2023-03-17T02:45:53.861Z,1.28
2023-03-17T02:46:54.043Z,1.10
2023-03-17T02:47:54.278Z,1.70
2023-03-17T02:48:54.526Z,1.19
2023-03-17T02:49:54.749Z,1.44
2023-03-17T03:03:58.112Z,1.60
2023-03-17T03:04:58.351Z,1.20
2023-03-17T03:05:58.594Z,1.92
2023-03-17T03:06:58.845Z,1.38
2023-03-17T03:47:08.191Z,1.92
2023-03-17T03:48:08.436Z,2.06
2023-03-17T03:49:08.637Z,1.21
2023-03-17T03:50:08.888Z,1.03
2023-03-17T03:51:09.098Z,1.09
2023-03-17T03:52:09.360Z,1.49
2023-03-17T03:53:09.587Z,1.36
2023-03-17T03:54:09.827Z,1.47
2023-03-17T03:55:10.061Z,1.34
2023-03-17T03:56:10.294Z,0.67
2023-03-17T03:57:10.623Z,1.00
2023-03-17T03:58:10.745Z,1.14
2023-03-17T03:59:10.972Z,0.96
2023-03-17T04:00:11.193Z,1.15
2023-03-17T04:01:11.431Z,1.39
2023-03-17T04:02:11.684Z,1.28
2023-03-17T04:03:11.982Z,0.75
2023-03-17T04:04:12.152Z,0.87
2023-03-17T04:05:12.389Z,1.11
2023-03-17T04:06:12.637Z,1.25
2023-03-17T04:07:12.886Z,0.95
2023-03-17T04:08:13.114Z,0.98
2023-03-17T04:09:13.377Z,0.81
2023-03-17T04:10:13.627Z,0.93
2023-03-17T04:11:13.894Z,0.69
2023-03-17T05:11:28.160Z,1.20
2023-03-17T05:12:28.396Z,1.48
2023-03-17T05:13:28.623Z,0.80
2023-03-17T05:14:28.858Z,0.90
2023-03-17T05:15:29.075Z,1.24
2023-03-17T05:16:29.343Z,1.09
2023-03-17T05:59:38.141Z,1.31
2023-03-17T06:00:38.395Z,1.29
2023-03-17T06:01:38.629Z,1.88
2023-03-17T06:02:38.875Z,1.38
2023-03-17T06:03:39.164Z,1.74
2023-03-17T06:04:39.334Z,1.13
2023-03-17T06:05:39.569Z,1.36
2023-03-17T06:06:39.828Z,1.83
2023-03-17T06:07:51.535Z,2.01
2023-03-17T06:09:40.080Z,2.18
2023-03-17T06:10:40.121Z,1.93
2023-03-17T06:11:40.161Z,1.97
2023-03-17T06:12:40.210Z,2.08
2023-03-17T06:13:40.261Z,1.89
2023-03-17T06:14:40.318Z,1.99
2023-03-17T06:15:40.390Z,1.49
2023-03-17T06:16:40.450Z,1.50
2023-03-17T06:17:40.452Z,2.24
2023-03-17T06:18:40.485Z,2.47
2023-03-17T06:19:40.697Z,2.44
2023-03-17T06:20:40.600Z,2.10
2023-03-17T06:21:40.740Z,1.72
2023-03-17T06:23:40.956Z,2.13
2023-03-17T07:09:48.171Z,4.55
2023-03-17T07:10:48.400Z,3.42
2023-03-17T07:11:48.633Z,1.84
2023-03-17T07:12:48.823Z,1.99
2023-03-17T07:13:49.042Z,2.18
2023-03-17T07:14:49.852Z,2.94
2023-03-17T07:15:49.386Z,3.20
2023-03-17T07:16:49.441Z,2.04
2023-03-17T07:17:49.478Z,2.08
2023-03-17T07:18:49.524Z,2.16
2023-03-17T07:19:49.577Z,2.54
2023-03-17T07:20:50.323Z,3.20
2023-03-17T07:21:49.733Z,2.07
2023-03-17T07:22:50.332Z,2.70
2023-03-17T07:23:49.921Z,2.76
2023-03-17T07:24:49.961Z,2.62
2023-03-17T07:25:50.844Z,3.13
2023-03-17T07:26:50.094Z,4.83
2023-03-17T07:27:50.175Z,9.38
2023-03-17T07:28:50.229Z,7.42
2023-03-17T07:29:50.350Z,5.80
2023-03-17T07:30:50.392Z,8.10
2023-03-17T07:31:50.514Z,5.66
2023-03-17T07:32:50.564Z,5.76
2023-03-17T07:33:50.582Z,4.67
2023-03-17T07:34:50.632Z,4.32
2023-03-17T07:35:50.753Z,3.63
2023-03-17T07:36:50.799Z,4.45
2023-03-17T07:37:50.887Z,4.10
2023-03-17T07:38:50.930Z,2.96
2023-03-17T07:39:51.022Z,2.42
2023-03-17T07:40:51.075Z,3.65
2023-03-17T07:41:51.135Z,3.71
2023-03-17T07:42:51.250Z,4.04
2023-03-17T07:43:51.311Z,3.90
2023-03-17T07:44:51.413Z,4.45
2023-03-17T07:45:51.578Z,3.76
2023-03-17T07:46:51.622Z,4.46
2023-03-17T07:47:51.680Z,3.64
2023-03-17T07:48:51.755Z,4.25
2023-03-17T07:49:51.852Z,4.65
2023-03-17T07:50:51.939Z,4.18
2023-03-17T07:51:52.009Z,4.29
2023-03-17T07:52:52.112Z,3.67
2023-03-17T07:53:52.182Z,3.57
2023-03-17T07:54:52.253Z,3.40
2023-03-17T07:55:52.368Z,3.97
2023-03-17T07:56:52.447Z,3.51
2023-03-17T07:57:52.572Z,2.69
2023-03-17T07:58:52.525Z,2.11
2023-03-17T07:59:52.580Z,2.38
2023-03-17T08:00:52.698Z,2.64
2023-03-17T08:03:52.960Z,4.57
2023-03-17T08:04:52.905Z,3.09
2023-03-17T08:45:58.362Z,2.07
2023-03-17T09:03:59.355Z,1.46
2023-03-17T09:51:58.156Z,1.50
2023-03-17T09:52:58.404Z,1.47
2023-03-17T09:53:58.561Z,1.41
2023-03-17T09:54:58.714Z,1.82
2023-03-17T09:55:59.002Z,1.36
2023-03-17T09:56:59.172Z,1.61
2023-03-17T10:39:01.057Z,1.81
2023-03-17T10:42:02.782Z,1.43
2023-03-17T10:56:01.700Z,1.15
2023-03-17T11:00:01.314Z,1.43
2023-03-17T11:01:01.318Z,1.31
2023-03-17T11:02:01.134Z,1.17
2023-03-17T11:03:01.011Z,1.12
2023-03-17T11:04:00.963Z,1.10
2023-03-17T11:05:00.875Z,1.65
2023-03-17T11:06:00.885Z,1.04
2023-03-17T11:07:01.897Z,0.99
2023-03-17T11:08:00.963Z,0.77
2023-03-17T11:09:00.935Z,1.10
2023-03-17T11:10:00.864Z,1.21
2023-03-17T11:11:00.929Z,1.12
2023-03-17T11:12:00.994Z,1.08
2023-03-17T11:13:01.232Z,1.09
2023-03-17T11:14:01.360Z,1.63
2023-03-17T11:15:01.622Z,1.35
2023-03-17T11:16:02.419Z,1.36
2023-03-17T11:17:01.730Z,1.14
2023-03-17T11:18:01.606Z,1.34
2023-03-17T11:19:01.538Z,1.62
2023-03-17T11:20:01.564Z,1.11
2023-03-17T11:21:01.715Z,0.96
2023-03-17T11:22:01.866Z,1.72
2023-03-17T11:23:02.163Z,1.37
2023-03-17T11:24:02.299Z,1.31
2023-03-17T11:25:02.480Z,1.22
2023-03-17T11:26:02.705Z,1.35
2023-03-17T11:27:02.857Z,1.33
2023-03-17T11:28:03.075Z,1.23
2023-03-17T11:29:03.260Z,1.39
2023-03-17T11:30:03.420Z,1.85
2023-03-17T11:31:03.598Z,1.61
2023-03-17T11:32:03.831Z,1.37
2023-03-17T11:55:08.065Z,1.17
2023-03-17T11:56:08.176Z,1.11
2023-03-17T11:57:08.426Z,0.88
2023-03-17T11:58:08.553Z,1.26
2023-03-17T11:59:08.891Z,1.18
2023-03-17T12:00:08.949Z,1.18
2023-03-17T12:01:09.160Z,1.18
2023-03-17T12:02:09.262Z,0.95
2023-03-17T12:03:09.480Z,1.56
2023-03-17T12:04:09.669Z,1.25
2023-03-17T12:05:09.790Z,0.85
2023-03-17T12:06:09.938Z,1.15
2023-03-17T12:07:10.137Z,1.36
2023-03-17T12:08:10.331Z,1.53
2023-03-17T12:09:10.516Z,1.17
2023-03-17T12:10:10.677Z,1.04
2023-03-17T12:11:10.836Z,1.18
2023-03-17T12:12:11.057Z,1.26
2023-03-17T12:13:11.285Z,1.83
2023-03-17T12:14:11.453Z,1.79
2023-03-17T12:15:11.638Z,1.14
2023-03-17T12:52:18.028Z,1.17
2023-03-17T12:53:18.184Z,1.45
2023-03-17T12:54:18.442Z,1.18
2023-03-17T12:55:18.592Z,1.04
2023-03-17T12:56:18.806Z,0.93
2023-03-17T12:57:18.985Z,1.24
2023-03-17T12:58:19.086Z,1.34
2023-03-17T12:59:19.331Z,1.39
2023-03-17T13:00:19.449Z,1.57
2023-03-17T13:01:19.670Z,1.03
2023-03-17T13:02:19.829Z,1.33
2023-03-17T13:03:20.145Z,0.99
2023-03-17T13:04:20.130Z,1.14
2023-03-17T13:05:20.341Z,1.17
2023-03-17T13:06:20.474Z,1.37
2023-03-17T13:07:20.721Z,0.96
2023-03-17T13:08:20.852Z,1.17
2023-03-17T13:09:21.003Z,1.13
2023-03-17T13:10:21.163Z,1.35
2023-03-17T13:11:21.310Z,1.32
2023-03-17T13:52:28.200Z,1.79
2023-03-17T13:53:28.337Z,1.64
2023-03-17T13:54:28.446Z,1.73
2023-03-17T13:55:28.750Z,1.52
2023-03-17T13:56:28.801Z,1.55
2023-03-17T13:57:28.952Z,1.54
2023-03-17T13:58:29.130Z,1.86
2023-03-17T13:59:29.307Z,2.29
2023-03-17T14:00:29.419Z,2.01
2023-03-17T14:01:29.645Z,1.71
2023-03-17T14:02:29.753Z,1.78
2023-03-17T14:03:29.905Z,1.60
2023-03-17T14:04:30.146Z,2.06
2023-03-17T14:05:30.614Z,1.89
2023-03-17T14:53:38.101Z,5.49
2023-03-17T14:54:38.268Z,4.77
2023-03-17T14:55:38.415Z,4.12
2023-03-17T14:56:38.649Z,3.86
2023-03-17T14:57:38.795Z,3.98
2023-03-17T15:01:39.589Z,3.76
2023-03-17T15:29:39.535Z,3.19
2023-03-17T15:30:47.237Z,3.08
2023-03-17T15:32:39.151Z,3.08
2023-03-17T15:33:38.960Z,2.83
2023-03-17T15:34:38.821Z,2.60
2023-03-17T15:35:38.706Z,2.83
2023-03-17T15:36:38.552Z,2.24
2023-03-17T15:37:38.410Z,2.61
2023-03-17T15:38:38.264Z,3.15
2023-03-17T15:39:38.129Z,2.61
2023-03-17T15:40:38.000Z,2.98
2023-03-17T17:12:38.037Z,3.77
2023-03-17T17:13:38.213Z,5.13
2023-03-17T17:14:38.500Z,5.08
2023-03-17T17:15:38.641Z,4.50
2023-03-17T17:16:38.880Z,3.97
2023-03-17T17:17:39.045Z,3.90
2023-03-17T17:18:39.218Z,3.85
2023-03-17T17:19:39.427Z,3.84
2023-03-17T17:20:39.658Z,4.16
2023-03-17T17:21:39.877Z,3.90
2023-03-17T17:22:40.059Z,3.83
2023-03-17T17:23:40.234Z,3.93
2023-03-17T17:24:40.405Z,4.09
2023-03-17T17:25:40.601Z,4.09
2023-03-17T17:26:40.809Z,4.45
2023-03-17T17:27:41.014Z,4.49
2023-03-17T17:28:41.242Z,4.17
2023-03-17T17:29:41.435Z,4.33
2023-03-17T17:30:41.670Z,5.02
2023-03-17T17:31:41.901Z,4.01
2023-03-17T17:32:42.152Z,4.22
2023-03-17T17:33:42.225Z,3.86
2023-03-17T17:34:42.421Z,3.84
2023-03-17T17:35:42.649Z,4.27
2023-03-17T17:36:42.837Z,3.92
2023-03-17T17:37:43.054Z,4.84
2023-03-17T17:38:43.243Z,4.18
2023-03-17T17:39:43.418Z,3.60
2023-03-17T17:40:43.631Z,4.61
2023-03-17T17:41:43.817Z,4.76
2023-03-17T17:42:43.969Z,4.21
2023-03-17T17:43:44.233Z,4.25
2023-03-17T17:44:44.349Z,4.25
2023-03-17T17:45:44.533Z,4.46
2023-03-17T17:46:44.755Z,4.40
2023-03-17T17:47:45.484Z,4.77
2023-03-17T17:48:44.900Z,4.35
2023-03-17T17:49:44.836Z,4.56
2023-03-17T17:50:44.784Z,5.02
2023-03-17T17:51:44.689Z,4.03
2023-03-17T17:52:46.538Z,5.18
2023-03-17T17:53:44.724Z,3.70
2023-03-17T17:54:44.654Z,4.07
2023-03-17T17:55:44.617Z,4.32
2023-03-17T17:56:44.643Z,5.15
2023-03-17T17:57:44.776Z,4.48
2023-03-17T17:58:44.956Z,4.93
2023-03-17T17:59:45.176Z,4.47
2023-03-17T18:00:45.340Z,5.09
2023-03-17T18:01:45.493Z,4.76
2023-03-17T18:02:45.699Z,4.73
2023-03-17T18:14:48.080Z,6.20
2023-03-17T18:26:48.770Z,6.44
2023-03-17T18:27:48.704Z,6.03
2023-03-17T18:28:48.627Z,6.60
2023-03-17T18:29:48.552Z,6.22
2023-03-17T18:30:48.494Z,6.18
2023-03-17T18:31:48.472Z,6.32
2023-03-17T18:32:48.378Z,6.04
2023-03-17T18:33:48.327Z,6.42
2023-03-17T18:34:48.312Z,5.91
2023-03-17T18:35:48.307Z,6.01
2023-03-17T18:36:48.259Z,6.43
2023-03-17T18:37:48.220Z,7.08
2023-03-17T18:38:48.174Z,5.86
2023-03-17T18:39:58.554Z,6.01
2023-03-17T18:40:49.341Z,6.24
2023-03-17T18:41:48.268Z,6.24
2023-03-17T18:42:48.217Z,5.94
2023-03-17T18:43:48.148Z,5.70
2023-03-17T18:44:48.082Z,5.41
2023-03-17T18:45:48.029Z,6.94
2023-03-17T18:57:48.046Z,6.39
2023-03-17T18:58:48.174Z,6.28
2023-03-17T18:59:48.446Z,6.80
2023-03-17T19:00:48.654Z,5.88
2023-03-17T19:01:48.909Z,6.40
2023-03-17T19:02:49.117Z,6.81
2023-03-17T19:03:49.352Z,5.63
2023-03-17T19:04:50.498Z,6.17
2023-03-17T19:05:49.478Z,6.65
2023-03-17T19:06:49.437Z,6.68
2023-03-17T19:07:49.404Z,5.88
2023-03-17T19:08:49.370Z,5.90
2023-03-17T19:09:49.305Z,6.48
2023-03-17T19:10:49.256Z,6.81
2023-03-17T19:11:49.212Z,6.45
2023-03-17T19:12:49.178Z,5.86
2023-03-17T19:13:49.375Z,6.52
2023-03-17T19:14:49.561Z,7.07
2023-03-17T19:15:49.733Z,5.99
2023-03-17T19:16:49.960Z,6.33
2023-03-17T19:17:50.065Z,6.27
2023-03-17T19:18:50.322Z,7.41
2023-03-17T19:19:50.478Z,6.77
2023-03-17T19:20:50.624Z,6.46
2023-03-17T19:21:50.803Z,6.79
2023-03-17T19:22:50.998Z,6.40
2023-03-17T19:23:51.251Z,6.95
2023-03-17T19:24:51.440Z,6.53
2023-03-17T19:25:51.649Z,6.47
2023-03-17T19:26:51.832Z,6.35
2023-03-17T19:27:52.022Z,6.96
2023-03-17T19:28:52.199Z,7.84
2023-03-17T19:29:52.376Z,7.87
2023-03-17T19:30:52.629Z,7.54
2023-03-17T19:31:52.866Z,6.56
2023-03-17T19:32:53.067Z,6.46
2023-03-17T19:33:53.189Z,6.35
2023-03-17T19:34:53.404Z,6.66
2023-03-17T19:36:53.824Z,7.92
2023-03-17T19:58:58.077Z,6.79
2023-03-17T19:59:58.223Z,6.07
2023-03-17T20:00:58.380Z,6.59
2023-03-17T20:01:58.754Z,7.64
2023-03-17T20:02:58.866Z,6.55
2023-03-17T20:03:59.132Z,6.59
2023-03-17T20:04:59.210Z,5.99
2023-03-17T20:05:59.434Z,6.36
2023-03-17T20:06:59.563Z,6.26
2023-03-17T20:07:59.774Z,6.83
2023-03-17T20:08:59.937Z,6.67
2023-03-17T20:12:00.613Z,8.35
2023-03-17T20:51:08.157Z,7.73
2023-03-17T20:52:08.303Z,6.00
2023-03-17T20:53:08.524Z,7.36
2023-03-17T20:54:08.750Z,6.53
2023-03-17T20:55:08.960Z,7.15
2023-03-17T21:59:18.046Z,5.06
2023-03-17T22:00:18.225Z,6.40
2023-03-17T22:01:18.538Z,6.08
2023-03-17T22:02:18.636Z,6.85
2023-03-17T22:03:18.900Z,6.78
2023-03-17T22:04:19.049Z,5.52
2023-03-17T22:05:19.281Z,5.22
2023-03-17T22:06:19.427Z,5.68
2023-03-17T22:07:19.646Z,7.05
2023-03-17T22:08:19.915Z,5.57
2023-03-17T22:09:20.145Z,6.62
2023-03-17T22:47:28.038Z,5.95
2023-03-17T22:48:28.272Z,5.79
2023-03-17T22:49:28.457Z,5.77
2023-03-17T22:50:28.606Z,5.70
2023-03-17T22:51:28.757Z,5.55
2023-03-17T22:52:28.975Z,5.76
2023-03-17T22:53:29.200Z,5.98
2023-03-17T22:54:29.339Z,6.16
2023-03-17T22:55:29.556Z,5.80
2023-03-17T22:57:29.897Z,4.31
2023-03-17T22:58:30.105Z,4.55
2023-03-17T22:59:30.325Z,3.58
2023-03-17T23:00:30.827Z,3.21
2023-03-17T23:35:38.153Z,6.64
2023-03-17T23:36:38.259Z,6.44
2023-03-17T23:37:38.468Z,5.85
2023-03-17T23:38:38.672Z,6.27
2023-03-17T23:39:38.964Z,6.91
2023-03-17T23:40:39.097Z,7.26
2023-03-17T23:41:39.303Z,6.51
2023-03-17T23:42:39.596Z,7.32
2023-03-17T23:43:39.731Z,8.18
2023-03-17T23:44:39.965Z,7.10
2023-03-17T23:45:40.205Z,7.68
2023-03-17T23:46:40.420Z,7.00
2023-03-17T23:47:40.554Z,6.74
2023-03-17T23:48:42.600Z,7.14
2023-03-17T23:49:40.744Z,6.67
2023-03-17T23:50:40.683Z,6.77
2023-03-17T23:51:40.650Z,8.00
2023-03-17T23:52:40.642Z,8.17
2023-03-17T23:53:40.612Z,7.25
2023-03-17T23:54:40.572Z,6.79
2023-03-17T23:55:40.541Z,6.32
2023-03-17T23:56:40.489Z,6.51
2023-03-17T23:57:40.454Z,7.69
2023-03-17T23:58:40.417Z,7.82
2023-03-17T23:59:40.389Z,7.08
